Time;durP1;ratioP1;P1;durP2;ratioP2;P2;SDS_P1;SDS_P2;PMS_P1;PMS_P2;Temp;Humidity;BMP_temperature;BMP_pressure;BME280_temperature;BME280_humidity;BME280_pressure;Samples;Min_cycle;Max_cycle;Signal;HPM_P1;HPM_P2
2023/06/14 00:01:27;;;;;;;10.15;8.38;;;;;;;15.63;84.70;94518.16;5083129;28;20032;-69
2023/06/14 00:03:52;;;;;;;9.30;7.55;;;;;;;15.26;84.94;94459.25;5088489;28;20032;-68
2023/06/14 00:06:18;;;;;;;11.60;7.85;;;;;;;15.67;84.60;94513.41;5055984;28;20513;-68
2023/06/14 00:08:46;;;;;;;10.23;7.70;;;;;;;15.44;84.73;94487.88;5087057;28;20032;-68
2023/06/14 00:11:12;;;;;;;10.68;8.10;;;;;;;15.60;84.19;94500.13;5068641;28;20023;-68
2023/06/14 00:13:38;;;;;;;12.00;7.50;;;;;;;15.62;84.26;94492.94;5089005;28;20032;-68
2023/06/14 00:16:03;;;;;;;9.02;6.88;;;;;;;15.70;83.98;94500.00;5088214;28;20421;-68
2023/06/14 00:18:29;;;;;;;10.43;7.50;;;;;;;15.50;83.41;94455.81;5087289;28;20054;-68
2023/06/14 00:20:54;;;;;;;11.27;8.15;;;;;;;15.62;84.23;94506.03;5087092;28;20098;-68
2023/06/14 00:23:20;;;;;;;11.10;7.60;;;;;;;15.69;83.87;94498.38;5087228;28;20047;-68
2023/06/14 00:25:45;;;;;;;10.27;7.82;;;;;;;15.63;84.37;94486.75;5087979;28;20486;-69
2023/06/14 00:28:11;;;;;;;10.88;7.95;;;;;;;15.56;84.48;94490.97;5088212;28;20553;-68
2023/06/14 00:30:36;;;;;;;10.35;8.02;;;;;;;15.53;84.81;94492.13;5087331;28;20032;-68
2023/06/14 00:33:02;;;;;;;7.88;6.90;;;;;;;15.50;84.93;94484.59;5052766;28;20039;-68
2023/06/14 00:35:27;;;;;;;11.57;7.80;;;;;;;15.20;84.78;94425.91;5053944;28;20028;-68
2023/06/14 00:37:54;;;;;;;11.60;7.90;;;;;;;15.50;85.04;94486.41;5069831;28;20039;-68
2023/06/14 00:40:22;;;;;;;13.25;8.23;;;;;;;15.49;85.33;94485.59;5070713;28;20024;-68
2023/06/14 00:42:48;;;;;;;9.38;7.22;;;;;;;15.76;84.37;94481.81;5087997;28;20040;-68
2023/06/14 00:45:13;;;;;;;9.55;7.47;;;;;;;15.56;84.79;94481.31;5086158;28;20123;-68
2023/06/14 00:47:40;;;;;;;8.95;7.53;;;;;;;15.48;84.97;94470.88;5069519;28;20042;-69
2023/06/14 00:50:07;;;;;;;9.82;7.57;;;;;;;15.73;84.63;94481.34;5065087;28;20049;-68
2023/06/14 00:52:32;;;;;;;12.63;7.15;;;;;;;15.71;84.20;94483.28;5087614;28;20494;-68
2023/06/14 00:54:58;;;;;;;7.32;6.45;;;;;;;15.69;83.84;94459.09;5053639;28;20085;-68
2023/06/14 00:57:23;;;;;;;9.82;7.22;;;;;;;15.57;83.94;94456.81;5069457;28;20024;-68
2023/06/14 00:59:49;;;;;;;7.97;6.50;;;;;;;15.82;83.51;94475.09;5088581;28;20411;-69
2023/06/14 01:02:15;;;;;;;10.95;7.50;;;;;;;15.68;83.50;94460.88;5088007;28;20032;-69
2023/06/14 01:04:41;;;;;;;8.43;7.28;;;;;;;15.36;83.63;94425.91;5070713;28;20043;-68
2023/06/14 01:07:25;;;;;;;9.18;6.65;;;;;;;15.61;84.01;94473.78;5066417;28;20038;-68
2023/06/14 01:10:20;;;;;;;10.95;7.13;;;;;;;15.56;84.38;94476.09;5087781;28;20422;-68
2023/06/14 01:12:58;;;;;;;9.35;7.55;;;;;;;15.58;84.59;94468.91;5087879;28;20486;-68
2023/06/14 01:15:23;;;;;;;7.50;5.90;;;;;;;15.41;84.42;94414.94;5087792;28;20410;-68
2023/06/14 01:17:51;;;;;;;8.57;6.05;;;;;;;15.94;84.46;94479.00;5085591;28;20035;-68
2023/06/14 01:20:17;;;;;;;12.18;7.05;;;;;;;15.73;84.05;94452.53;5070934;28;20036;-68
2023/06/14 01:23:01;;;;;;;7.93;6.18;;;;;;;15.44;84.11;94398.91;5070381;28;20036;-68
2023/06/14 01:25:27;;;;;;;9.75;6.55;;;;;;;15.78;84.18;94473.81;5083349;28;20409;-68
2023/06/14 01:27:56;;;;;;;7.05;6.20;;;;;;;15.49;84.56;94441.09;5065802;28;20075;-68
2023/06/14 01:30:22;;;;;;;7.65;6.85;;;;;;;15.58;84.92;94474.13;5065719;28;20093;-68
2023/06/14 01:32:47;;;;;;;15.68;7.90;;;;;;;15.62;85.09;94466.75;5052135;28;20040;-68
2023/06/14 01:35:12;;;;;;;10.25;6.88;;;;;;;15.65;84.75;94472.47;5068268;28;20024;-68
2023/06/14 01:37:39;;;;;;;9.27;7.32;;;;;;;15.67;84.60;94471.50;5052431;28;20040;-69
2023/06/14 01:40:06;;;;;;;9.10;6.47;;;;;;;15.75;84.66;94474.13;5086968;28;20032;-68
2023/06/14 01:42:33;;;;;;;9.20;6.85;;;;;;;15.89;84.21;94464.78;5054036;28;20101;-68
2023/06/14 01:45:00;;;;;;;8.35;6.78;;;;;;;15.97;83.97;94473.44;5050929;28;20142;-68
2023/06/14 01:47:26;;;;;;;10.23;6.72;;;;;;;15.56;83.75;94426.34;5069037;28;20051;-68
2023/06/14 01:49:51;;;;;;;10.38;7.15;;;;;;;15.96;83.73;94471.78;5069482;28;20101;-68
2023/06/14 01:52:19;;;;;;;9.02;6.70;;;;;;;16.01;83.66;94472.09;5069562;28;20016;-68
2023/06/14 01:54:44;;;;;;;8.68;6.85;;;;;;;15.80;83.55;94435.19;5085899;28;20246;-68
2023/06/14 01:57:10;;;;;;;8.60;7.10;;;;;;;15.90;83.19;94450.69;5068580;28;20459;-68
2023/06/14 01:59:35;;;;;;;9.50;7.07;;;;;;;15.80;83.04;94441.22;5070101;28;20032;-68
2023/06/14 02:02:04;;;;;;;9.45;6.80;;;;;;;15.90;83.06;94464.59;5068810;28;20032;-68
2023/06/14 02:04:30;;;;;;;9.07;7.25;;;;;;;15.72;82.69;94453.53;5087189;28;20054;-68
2023/06/14 02:06:55;;;;;;;10.88;7.50;;;;;;;15.68;82.50;94450.41;5084631;28;20028;-68
2023/06/14 02:09:21;;;;;;;9.02;6.57;;;;;;;15.79;82.85;94472.81;5068518;28;20032;-68
2023/06/14 02:11:46;;;;;;;8.82;6.95;;;;;;;15.83;82.87;94480.19;5067400;28;20039;-68
2023/06/14 02:14:12;;;;;;;12.25;7.80;;;;;;;15.75;83.01;94487.22;5086292;28;20040;-68
2023/06/14 02:16:38;;;;;;;8.93;6.50;;;;;;;15.63;83.14;94484.13;5084725;28;20521;-68
2023/06/14 02:19:05;;;;;;;10.65;7.55;;;;;;;15.22;83.02;94416.09;5053833;28;20036;-68
2023/06/14 02:21:30;;;;;;;10.85;7.05;;;;;;;15.64;82.91;94481.31;5069591;28;20032;-68
2023/06/14 02:23:56;;;;;;;10.85;7.45;;;;;;;15.65;83.13;94476.91;5068229;28;20478;-68
2023/06/14 02:26:22;;;;;;;9.60;7.13;;;;;;;15.65;83.06;94482.94;5087051;28;20035;-68
2023/06/14 02:28:48;;;;;;;7.25;6.55;;;;;;;15.89;83.25;94493.59;5048411;28;20036;-68
2023/06/14 02:31:13;;;;;;;8.85;6.50;;;;;;;15.46;83.38;94436.19;5086240;28;20426;-68
2023/06/14 02:33:39;;;;;;;10.63;7.07;;;;;;;15.67;83.60;94501.13;5068161;28;20422;-68
2023/06/14 02:36:06;;;;;;;8.27;7.03;;;;;;;15.60;83.28;94461.69;5068680;28;20027;-68
2023/06/14 02:38:31;;;;;;;11.32;7.03;;;;;;;15.80;83.01;94477.09;5083952;28;20039;-68
2023/06/14 02:40:59;;;;;;;10.40;6.90;;;;;;;15.71;83.54;94471.03;5065488;28;20559;-68
2023/06/14 02:43:24;;;;;;;12.68;7.00;;;;;;;15.62;83.75;94480.66;5083845;28;21359;-68
2023/06/14 02:45:50;;;;;;;9.73;7.45;;;;;;;15.41;83.67;94446.34;5085296;28;20035;-68
2023/06/14 02:48:16;;;;;;;9.38;6.90;;;;;;;15.64;83.83;94511.94;5066823;28;20040;-68
2023/06/14 02:50:41;;;;;;;11.73;7.70;;;;;;;15.24;83.90;94452.56;5069383;28;20078;-68
2023/06/14 02:53:07;;;;;;;9.10;7.20;;;;;;;15.12;84.59;94439.00;5086435;28;20028;-68
2023/06/14 02:55:33;;;;;;;8.38;6.88;;;;;;;15.48;85.05;94502.28;5083806;28;20037;-69
2023/06/14 02:57:58;;;;;;;9.43;7.40;;;;;;;15.48;84.64;94489.19;5084292;28;20521;-68
2023/06/14 03:00:24;;;;;;;10.48;7.28;;;;;;;15.32;84.65;94474.31;5051878;28;20024;-68
2023/06/14 03:02:51;;;;;;;9.57;7.30;;;;;;;15.68;84.96;94518.47;5086848;28;20051;-68
2023/06/14 03:05:20;;;;;;;8.27;6.65;;;;;;;15.58;85.03;94521.25;5083891;28;20054;-68
2023/06/14 03:07:47;;;;;;;9.05;7.43;;;;;;;15.58;85.23;94518.63;5047976;28;20052;-68
2023/06/14 03:10:13;;;;;;;10.75;7.38;;;;;;;15.61;85.20;94510.44;5087047;28;20131;-68
2023/06/14 03:12:38;;;;;;;8.57;6.95;;;;;;;15.34;84.56;94446.16;5068380;28;20039;-68
2023/06/14 03:15:04;;;;;;;11.88;7.22;;;;;;;15.52;84.53;94490.50;5084506;28;20463;-68
2023/06/14 03:17:33;;;;;;;9.43;6.57;;;;;;;15.19;84.62;94440.78;5067671;28;20049;-68
2023/06/14 03:20:01;;;;;;;9.75;7.43;;;;;;;15.40;84.88;94476.91;5084761;28;20065;-68
2023/06/14 03:22:28;;;;;;;10.93;7.57;;;;;;;15.41;85.08;94489.03;5069319;28;20093;-68
2023/06/14 03:24:54;;;;;;;11.25;6.78;;;;;;;15.58;84.90;94518.63;5066721;28;20048;-68
2023/06/14 03:27:19;;;;;;;9.20;7.82;;;;;;;15.36;84.59;94467.78;5067274;28;20039;-68
2023/06/14 03:29:45;;;;;;;7.45;6.45;;;;;;;15.79;84.40;94522.56;5050204;28;20044;-68
2023/06/14 03:32:10;;;;;;;10.18;6.93;;;;;;;15.48;83.97;94470.06;5051590;28;20024;-69
2023/06/14 03:34:38;;;;;;;9.07;7.45;;;;;;;15.58;83.79;94487.22;5086445;28;20040;-69
2023/06/14 03:37:03;;;;;;;8.93;7.15;;;;;;;15.73;83.56;94497.03;5066810;28;20028;-68
2023/06/14 03:39:29;;;;;;;9.38;7.20;;;;;;;15.95;83.27;94512.06;5050041;28;20047;-68
2023/06/14 03:41:54;;;;;;;10.23;7.15;;;;;;;15.83;83.30;94502.94;5083946;28;20036;-68
2023/06/14 03:44:20;;;;;;;8.98;7.50;;;;;;;15.75;83.23;94495.09;5085431;28;20047;-68
2023/06/14 03:46:46;;;;;;;12.60;7.43;;;;;;;15.78;83.38;94497.38;5066395;28;20133;-68
2023/06/14 03:49:12;;;;;;;10.00;7.22;;;;;;;15.93;83.31;94510.59;5085659;28;20044;-68
2023/06/14 03:51:37;;;;;;;10.80;6.97;;;;;;;15.63;83.08;94450.91;5063871;28;20036;-69
2023/06/14 03:54:03;;;;;;;8.18;6.95;;;;;;;16.03;82.97;94503.38;5087727;28;20036;-68
2023/06/14 03:56:28;;;;;;;9.93;7.68;;;;;;;15.57;83.21;94451.56;5049908;28;20485;-68
2023/06/14 03:58:55;;;;;;;11.02;7.50;;;;;;;16.09;82.85;94503.50;5067255;28;20024;-68
2023/06/14 04:01:20;;;;;;;9.73;7.40;;;;;;;16.30;82.91;94536.22;5086373;28;20029;-68
2023/06/14 04:03:46;;;;;;;9.45;7.88;;;;;;;16.02;82.92;94481.59;5086714;28;20028;-68
2023/06/14 04:06:12;;;;;;;8.50;7.20;;;;;;;16.21;82.50;94505.78;5084443;28;20094;-68
2023/06/14 04:08:39;;;;;;;11.30;7.82;;;;;;;16.33;82.07;94535.88;5060662;28;20044;-68
2023/06/14 04:11:05;;;;;;;10.90;6.65;;;;;;;16.29;81.66;94508.38;5069904;28;20168;-68
2023/06/14 04:13:30;;;;;;;8.05;6.45;;;;;;;16.11;81.73;94489.44;5071812;28;20032;-68
2023/06/14 04:15:56;;;;;;;7.93;6.65;;;;;;;16.50;81.24;94537.44;5071466;28;20020;-69
2023/06/14 04:18:22;;;;;;;7.20;6.32;;;;;;;16.55;81.11;94539.56;5069677;28;20028;-68
2023/06/14 04:20:48;;;;;;;7.82;6.25;;;;;;;16.48;81.71;94528.94;5072126;28;20031;-68
2023/06/14 04:23:17;;;;;;;8.93;6.95;;;;;;;16.49;81.92;94521.88;5072021;28;20421;-68
2023/06/14 04:25:45;;;;;;;9.13;6.57;;;;;;;16.42;82.18;94529.63;5071839;28;20130;-69
2023/06/14 04:28:11;;;;;;;9.02;6.68;;;;;;;16.43;81.62;94515.50;5067052;28;20029;-68
2023/06/14 04:30:40;;;;;;;7.60;6.40;;;;;;;16.54;81.27;94536.13;5072730;28;20028;-69
2023/06/14 04:33:06;;;;;;;6.93;6.20;;;;;;;16.61;80.68;94538.06;5089722;28;20099;-69
2023/06/14 04:35:35;;;;;;;6.65;5.60;;;;;;;16.37;79.02;94469.03;5069477;28;20028;-68
2023/06/14 04:38:02;;;;;;;7.07;6.35;;;;;;;16.46;79.89;94488.97;5053771;28;20066;-68
2023/06/14 04:40:27;;;;;;;10.88;6.07;;;;;;;16.51;79.53;94491.88;5070117;28;20081;-69
2023/06/14 04:42:52;;;;;;;7.97;6.53;;;;;;;16.71;79.90;94542.09;5069973;28;20327;-68
2023/06/14 04:45:18;;;;;;;7.10;5.97;;;;;;;16.40;79.96;94481.78;5077970;28;20052;-68
2023/06/14 04:47:43;;;;;;;9.07;6.10;;;;;;;16.87;79.88;94538.63;5077111;28;20036;-68
2023/06/14 04:50:10;;;;;;;8.13;5.80;;;;;;;16.76;79.72;94533.72;5071945;28;21080;-68
2023/06/14 04:52:36;;;;;;;7.65;6.03;;;;;;;16.62;80.28;94521.34;5084091;28;20020;-68
2023/06/14 04:55:02;;;;;;;10.35;6.63;;;;;;;16.70;80.34;94521.31;5048689;28;20115;-68
2023/06/14 04:57:28;;;;;;;8.68;6.30;;;;;;;16.59;79.79;94482.34;5071043;28;20023;-68
2023/06/14 04:59:54;;;;;;;6.82;6.13;;;;;;;16.66;79.81;94505.09;5072994;28;20108;-68
2023/06/14 05:02:22;;;;;;;9.65;6.57;;;;;;;17.00;79.91;94545.13;5070896;28;20036;-70
2023/06/14 05:04:47;;;;;;;8.15;6.47;;;;;;;16.96;79.76;94537.56;5092613;28;20077;-68
2023/06/14 05:07:14;;;;;;;9.45;6.82;;;;;;;17.05;79.15;94546.25;5064137;28;20036;-68
2023/06/14 05:09:39;;;;;;;10.15;6.88;;;;;;;17.04;78.49;94541.97;5069762;28;20032;-68
2023/06/14 05:12:07;;;;;;;8.68;6.90;;;;;;;17.15;78.14;94538.94;5088600;28;20421;-69
2023/06/14 05:14:33;;;;;;;9.57;6.43;;;;;;;16.98;77.96;94529.56;5071421;28;20112;-68
2023/06/14 05:16:59;;;;;;;10.88;7.00;;;;;;;17.10;77.59;94537.84;5053285;28;20498;-68
2023/06/14 05:19:24;;;;;;;8.85;6.80;;;;;;;16.77;77.69;94485.59;5087685;28;20764;-68
2023/06/14 05:21:50;;;;;;;8.60;6.18;;;;;;;17.13;77.78;94563.72;5064680;28;20035;-67
2023/06/14 05:24:17;;;;;;;10.25;7.38;;;;;;;17.07;78.05;94544.25;5047367;28;20028;-68
2023/06/14 05:26:43;;;;;;;10.50;6.78;;;;;;;16.99;76.99;94499.69;5065231;28;20036;-68
2023/06/14 05:29:08;;;;;;;9.50;6.72;;;;;;;17.51;76.25;94563.81;5085578;28;20036;-68
2023/06/14 05:31:34;;;;;;;10.00;7.40;;;;;;;17.74;75.64;94563.78;5079976;28;20032;-68
2023/06/14 05:33:59;;;;;;;8.18;7.10;;;;;;;17.52;76.46;94542.63;5076536;28;20402;-68
2023/06/14 05:36:25;;;;;;;10.75;6.80;;;;;;;17.34;76.82;94508.00;5083819;28;20031;-69
2023/06/14 05:38:57;;;;;;;11.57;7.38;;;;;;;17.65;76.80;94569.13;5070597;28;20566;-68
2023/06/14 05:41:23;;;;;;;9.45;6.93;;;;;;;17.71;75.42;94572.84;5089714;28;20024;-68
2023/06/14 05:43:49;;;;;;;10.18;7.95;;;;;;;17.58;75.64;94567.41;5052123;28;20029;-68
2023/06/14 05:46:15;;;;;;;10.95;8.48;;;;;;;17.01;76.56;94496.91;5069520;28;20419;-68
2023/06/14 05:48:40;;;;;;;12.68;9.65;;;;;;;17.35;77.02;94570.81;5063604;28;20059;-68
2023/06/14 05:51:08;;;;;;;13.88;10.90;;;;;;;17.03;77.67;94563.16;5072418;28;20517;-68
2023/06/14 05:53:37;;;;;;;13.23;10.63;;;;;;;16.90;77.67;94548.78;5088059;28;20479;-68
2023/06/14 05:56:02;;;;;;;13.93;11.27;;;;;;;16.97;78.45;94573.34;5087078;28;20074;-69
2023/06/14 05:58:28;;;;;;;13.85;11.85;;;;;;;16.98;78.30;94555.78;5071140;28;20123;-68
2023/06/14 06:00:53;;;;;;;16.00;12.43;;;;;;;17.05;78.62;94590.00;5039302;28;20031;-68
2023/06/14 06:03:19;;;;;;;15.13;11.70;;;;;;;17.17;79.25;94578.16;5056620;28;20032;-68
2023/06/14 06:05:45;;;;;;;15.10;12.15;;;;;;;16.89;78.62;94538.47;5048748;28;20510;-68
2023/06/14 06:08:13;;;;;;;16.55;11.82;;;;;;;17.36;77.97;94590.84;5074078;28;20036;-69
2023/06/14 06:10:38;;;;;;;17.02;13.50;;;;;;;17.13;77.86;94555.84;5065486;28;20060;-68
2023/06/14 06:13:04;;;;;;;15.05;13.40;;;;;;;17.30;75.93;94567.06;5071072;28;21404;-68
2023/06/14 06:15:31;;;;;;;18.92;13.85;;;;;;;17.10;77.45;94556.19;5080314;28;20098;-68
2023/06/14 06:17:57;;;;;;;15.10;12.50;;;;;;;17.36;76.62;94601.34;5073540;28;20537;-68
2023/06/14 06:20:28;;;;;;;16.65;12.30;;;;;;;17.06;76.93;94552.31;5079131;28;20603;-68
2023/06/14 06:22:53;;;;;;;16.75;12.82;;;;;;;17.16;77.21;94579.13;5062099;28;20094;-68
2023/06/14 06:25:19;;;;;;;15.63;12.52;;;;;;;17.30;77.75;94598.56;5080998;28;20035;-66
2023/06/14 06:27:44;;;;;;;18.45;12.68;;;;;;;17.29;77.71;94608.25;5088221;28;20550;-67
2023/06/14 06:30:10;;;;;;;16.92;12.45;;;;;;;17.39;77.66;94602.81;5091523;28;20020;-69
2023/06/14 06:32:38;;;;;;;15.57;13.27;;;;;;;17.05;76.43;94582.13;5069115;28;20091;-68
2023/06/14 06:35:07;;;;;;;16.63;13.23;;;;;;;17.43;76.94;94601.44;5073226;28;20080;-68
2023/06/14 06:37:34;;;;;;;16.70;14.15;;;;;;;17.61;76.77;94611.69;5053323;28;20106;-67
2023/06/14 06:40:00;;;;;;;16.73;13.45;;;;;;;17.47;77.05;94608.00;5078837;28;20471;-67
2023/06/14 06:42:28;;;;;;;17.52;14.02;;;;;;;17.05;77.15;94550.66;5088664;28;20032;-68
2023/06/14 06:44:53;;;;;;;15.38;12.80;;;;;;;17.19;76.21;94547.31;5079660;28;20449;-68
2023/06/14 06:47:19;;;;;;;18.77;14.20;;;;;;;17.58;75.89;94585.78;5069250;28;20024;-68
2023/06/14 06:49:44;;;;;;;16.08;13.23;;;;;;;17.55;75.83;94600.06;5074513;28;20442;-68
2023/06/14 06:52:10;;;;;;;16.17;13.45;;;;;;;18.02;74.19;94614.81;5088729;28;20024;-68
2023/06/14 06:54:35;;;;;;;16.55;14.40;;;;;;;17.82;74.69;94596.09;5076663;28;20051;-68
2023/06/14 06:57:01;;;;;;;18.02;13.80;;;;;;;18.15;74.06;94608.16;5089402;28;20556;-67
2023/06/14 06:59:26;;;;;;;19.52;13.75;;;;;;;18.30;73.08;94608.97;5076974;28;20401;-67
2023/06/14 07:01:54;;;;;;;18.48;13.95;;;;;;;18.18;74.02;94616.50;5084563;28;20028;-68
2023/06/14 07:04:20;;;;;;;16.83;14.05;;;;;;;18.09;73.79;94612.31;5083321;28;20450;-68
2023/06/14 07:06:46;;;;;;;14.60;12.85;;;;;;;18.03;73.79;94577.06;5052502;28;20035;-68
2023/06/14 07:09:12;;;;;;;16.98;13.05;;;;;;;18.39;73.73;94612.38;5045898;28;20032;-68
2023/06/14 07:11:39;;;;;;;17.30;12.52;;;;;;;18.50;73.08;94612.75;5045329;28;20059;-69
2023/06/14 07:14:04;;;;;;;17.50;13.35;;;;;;;18.38;73.24;94611.53;5068839;28;20047;-68
2023/06/14 07:16:30;;;;;;;16.08;12.40;;;;;;;18.36;72.37;94586.41;5082252;28;20021;-68
2023/06/14 07:18:58;;;;;;;14.57;13.00;;;;;;;18.69;71.48;94598.25;5071332;28;20040;-67
2023/06/14 07:21:25;;;;;;;15.48;12.55;;;;;;;18.73;70.26;94564.47;5043904;28;20032;-68
2023/06/14 07:23:58;;;;;;;14.77;13.07;;;;;;;18.60;70.22;94543.25;5052043;28;20469;-68
2023/06/14 07:26:24;;;;;;;14.95;12.07;;;;;;;18.87;69.14;94544.44;5085138;28;20031;-69
2023/06/14 07:28:50;;;;;;;17.08;12.93;;;;;;;19.10;69.28;94595.13;5068343;28;20091;-68
2023/06/14 07:31:16;;;;;;;16.10;12.40;;;;;;;18.68;69.04;94512.41;5085005;28;20081;-68
2023/06/14 07:33:44;;;;;;;16.23;13.18;;;;;;;18.65;69.56;94548.78;5079058;28;20028;-68
2023/06/14 07:36:09;;;;;;;18.88;13.15;;;;;;;18.67;69.63;94552.88;5064096;28;20049;-68
2023/06/14 07:38:36;;;;;;;15.20;13.20;;;;;;;18.91;70.22;94596.50;5082177;28;20572;-68
2023/06/14 07:41:02;;;;;;;16.40;13.10;;;;;;;19.18;69.94;94591.56;5078752;28;20020;-68
2023/06/14 07:43:27;;;;;;;16.20;12.73;;;;;;;19.05;69.06;94541.41;5064443;28;20081;-68
2023/06/14 07:45:53;;;;;;;16.35;12.98;;;;;;;19.14;69.38;94546.38;5085068;28;20037;-68
2023/06/14 07:48:20;;;;;;;13.55;12.18;;;;;;;19.65;68.42;94582.34;5066883;28;20223;-68
2023/06/14 07:50:46;;;;;;;16.90;12.35;;;;;;;19.46;68.78;94573.22;5088959;28;20038;-68
2023/06/14 07:53:11;;;;;;;14.40;11.52;;;;;;;19.24;69.24;94561.03;5087307;28;20445;-68
2023/06/14 07:55:37;;;;;;;15.90;13.35;;;;;;;19.04;68.56;94605.59;5088770;28;20059;-68
2023/06/14 07:58:05;;;;;;;15.88;12.52;;;;;;;19.35;68.56;94603.50;5081211;28;20032;-68
2023/06/14 08:00:31;;;;;;;14.15;12.65;;;;;;;19.62;69.90;94609.88;5081094;28;20024;-68
2023/06/14 08:02:58;;;;;;;12.68;11.30;;;;;;;19.63;67.57;94569.34;5065024;28;20039;-68
2023/06/14 08:05:24;;;;;;;13.82;11.85;;;;;;;19.69;67.50;94603.88;5064350;28;20051;-68
2023/06/14 08:07:50;;;;;;;16.85;11.38;;;;;;;19.87;66.14;94570.00;5064232;28;20240;-68
2023/06/14 08:10:15;;;;;;;13.13;11.73;;;;;;;20.45;63.68;94623.38;5081089;28;20059;-68
2023/06/14 08:12:43;;;;;;;13.32;11.25;;;;;;;20.37;63.56;94570.78;5047798;28;20036;-68
2023/06/14 08:15:09;;;;;;;12.10;10.80;;;;;;;20.28;64.35;94575.38;5075611;28;20567;-68
2023/06/14 08:17:34;;;;;;;14.45;11.32;;;;;;;20.77;63.19;94623.81;5084803;28;20302;-68
2023/06/14 08:20:06;;;;;;;11.98;10.77;;;;;;;20.67;63.42;94618.06;5066138;28;20388;-68
2023/06/14 08:22:33;;;;;;;11.02;9.85;;;;;;;21.07;61.06;94629.66;5053863;28;20094;-68
2023/06/14 08:25:03;;;;;;;13.63;11.52;;;;;;;20.66;62.96;94587.41;5053288;28;20060;-68
2023/06/14 08:27:28;;;;;;;13.48;12.05;;;;;;;21.18;63.19;94630.94;5086677;28;20046;-68
2023/06/14 08:29:54;;;;;;;12.75;11.43;;;;;;;20.84;63.33;94623.84;5087965;28;20169;-68
2023/06/14 08:32:19;;;;;;;13.70;11.50;;;;;;;20.71;62.32;94628.03;5071035;28;20521;-68
2023/06/14 08:34:45;;;;;;;14.15;11.38;;;;;;;20.61;64.25;94626.75;5086742;28;20032;-68
2023/06/14 08:37:10;;;;;;;13.00;10.23;;;;;;;20.39;65.15;94620.69;5087974;28;20022;-68
2023/06/14 08:39:36;;;;;;;11.40;9.85;;;;;;;20.52;64.26;94597.84;5086902;28;20028;-68
2023/06/14 08:42:03;;;;;;;12.43;10.10;;;;;;;20.71;63.46;94612.22;5069790;28;20479;-69
2023/06/14 08:44:29;;;;;;;13.27;11.27;;;;;;;20.87;63.87;94621.66;5066143;28;20028;-68
2023/06/14 08:46:56;;;;;;;11.02;9.93;;;;;;;21.09;61.85;94617.09;5084701;28;20040;-68
2023/06/14 08:49:22;;;;;;;12.13;10.27;;;;;;;21.49;61.70;94621.72;5054399;28;20056;-68
2023/06/14 08:51:51;;;;;;;10.10;9.10;;;;;;;21.75;60.14;94621.78;5087608;28;20406;-68
2023/06/14 08:54:20;;;;;;;10.63;9.52;;;;;;;21.61;58.72;94615.66;5070361;28;20032;-68
2023/06/14 08:56:48;;;;;;;11.25;10.02;;;;;;;21.84;58.23;94606.53;5054000;28;20094;-68
2023/06/14 08:59:13;;;;;;;11.48;9.40;;;;;;;21.68;58.21;94604.31;5072121;28;20617;-68
2023/06/14 09:01:39;;;;;;;11.25;9.98;;;;;;;21.89;58.76;94595.38;5069828;28;20036;-68
2023/06/14 09:04:08;;;;;;;13.77;10.32;;;;;;;22.04;59.06;94603.94;5051755;28;20402;-68
2023/06/14 09:06:36;;;;;;;10.65;9.55;;;;;;;22.09;58.61;94610.25;5069073;28;20562;-69
2023/06/14 09:09:04;;;;;;;13.93;9.13;;;;;;;22.03;58.24;94597.00;5087887;28;20194;-68
2023/06/14 09:11:32;;;;;;;11.32;9.82;;;;;;;21.96;59.41;94620.81;5087532;28;20466;-68
2023/06/14 09:13:59;;;;;;;10.00;9.00;;;;;;;21.71;60.11;94604.69;5069156;28;20032;-68
2023/06/14 09:16:25;;;;;;;10.23;8.77;;;;;;;21.17;59.68;94616.91;5061112;28;20043;-68
2023/06/14 09:18:51;;;;;;;11.10;8.68;;;;;;;21.36;59.46;94615.34;5086475;28;20118;-69
2023/06/14 09:21:17;;;;;;;9.50;8.45;;;;;;;21.04;60.54;94563.25;5088901;28;20479;-68
2023/06/14 09:23:45;;;;;;;12.07;8.90;;;;;;;21.36;59.87;94604.78;5084306;28;20027;-68
2023/06/14 09:26:12;;;;;;;9.13;8.23;;;;;;;21.29;59.59;94566.97;5071027;28;20698;-69
2023/06/14 09:28:44;;;;;;;9.75;8.75;;;;;;;21.15;59.93;94594.34;5069379;28;20040;-68
2023/06/14 09:31:14;;;;;;;9.40;8.50;;;;;;;21.23;58.72;94588.06;5053797;28;20456;-68
2023/06/14 09:33:47;;;;;;;10.02;7.90;;;;;;;20.89;61.45;94548.31;5067567;28;20077;-68
2023/06/14 09:36:17;;;;;;;8.77;7.88;;;;;;;21.14;60.95;94617.28;5088422;28;20028;-68
2023/06/14 09:38:51;;;;;;;7.93;7.13;;;;;;;21.04;61.81;94613.41;5082532;28;21082;-68
2023/06/14 09:41:16;;;;;;;9.18;7.88;;;;;;;21.32;62.36;94603.56;5052263;28;20021;-68
2023/06/14 09:43:42;;;;;;;10.55;7.28;;;;;;;20.95;59.34;94536.19;5085199;28;20035;-68
2023/06/14 09:46:07;;;;;;;14.15;8.75;;;;;;;21.23;60.15;94591.53;5052677;28;20036;-68
2023/06/14 09:48:33;;;;;;;11.43;8.18;;;;;;;21.08;61.30;94591.66;5069638;28;20561;-68
2023/06/14 09:50:58;;;;;;;9.20;7.70;;;;;;;21.21;60.91;94598.84;5087763;28;20023;-68
2023/06/14 09:53:23;;;;;;;10.18;7.38;;;;;;;21.22;60.32;94584.63;5066645;28;20406;-68
2023/06/14 09:55:49;;;;;;;7.85;7.10;;;;;;;21.33;61.56;94593.78;5086877;28;20016;-68
2023/06/14 09:58:15;;;;;;;9.23;7.60;;;;;;;21.26;59.64;94579.78;5066761;28;20075;-68
2023/06/14 10:00:40;;;;;;;8.30;7.40;;;;;;;21.24;60.26;94592.34;5065729;28;20028;-69
2023/06/14 10:03:09;;;;;;;8.27;7.38;;;;;;;21.07;61.21;94576.84;5086533;28;20089;-68
2023/06/14 10:05:35;;;;;;;7.60;6.88;;;;;;;21.30;59.97;94578.34;5069585;28;20032;-67
2023/06/14 10:08:09;;;;;;;7.90;7.10;;;;;;;21.32;58.00;94558.66;5055394;28;20509;-67
2023/06/14 10:10:34;;;;;;;7.63;6.82;;;;;;;21.19;57.86;94524.28;5069870;28;20106;-67
2023/06/14 10:13:00;;;;;;;9.02;7.30;;;;;;;21.76;57.84;94585.59;5069331;28;20075;-68
2023/06/14 10:15:42;;;;;;;8.73;7.50;;;;;;;21.82;57.18;94579.50;5068518;28;20432;-68
2023/06/14 10:18:22;;;;;;;8.88;7.97;;;;;;;21.90;57.15;94559.97;5084666;28;20034;-68
2023/06/14 10:20:55;;;;;;;8.75;7.80;;;;;;;21.92;56.57;94548.16;5054993;28;20425;-68
2023/06/14 10:23:22;;;;;;;7.60;6.90;;;;;;;21.83;56.86;94505.25;5068806;28;20082;-68
2023/06/14 10:25:55;;;;;;;8.52;7.13;;;;;;;22.04;57.19;94511.38;5069703;28;20032;-68
2023/06/14 10:28:27;;;;;;;6.90;6.20;;;;;;;22.65;56.79;94512.88;5051993;28;20471;-68
2023/06/14 10:31:09;;;;;;;7.50;6.80;;;;;;;22.69;53.61;94527.34;5067303;28;20025;-68
2023/06/14 10:34:10;;;;;;;7.30;6.50;;;;;;;22.73;54.63;94547.91;5084222;28;20510;-68
2023/06/14 10:36:36;;;;;;;7.57;6.55;;;;;;;22.72;55.59;94535.66;5044194;28;20028;-68
2023/06/14 10:39:06;;;;;;;8.48;6.80;;;;;;;22.63;55.24;94507.81;5072625;28;20055;-68
2023/06/14 10:41:36;;;;;;;7.30;6.25;;;;;;;23.05;54.99;94532.13;5052135;28;20457;-68
2023/06/14 10:44:14;;;;;;;9.10;6.18;;;;;;;23.11;55.31;94530.47;5064812;28;20498;-68
2023/06/14 10:46:40;;;;;;;8.02;6.40;;;;;;;23.16;54.42;94549.19;5086076;28;20543;-67
2023/06/14 10:49:06;;;;;;;6.70;6.05;;;;;;;23.35;54.92;94536.88;5085780;28;20079;-68
2023/06/14 10:51:46;;;;;;;7.00;6.10;;;;;;;23.32;54.75;94539.94;5068265;28;20070;-68
2023/06/14 10:54:13;;;;;;;7.95;6.30;;;;;;;23.01;53.94;94525.59;5067146;28;20806;-68
2023/06/14 10:56:38;;;;;;;5.82;5.15;;;;;;;23.27;54.62;94505.31;5051953;28;20108;-67
2023/06/14 10:59:03;;;;;;;6.80;6.10;;;;;;;23.52;53.43;94530.03;5083870;28;20032;-68
2023/06/14 11:01:52;;;;;;;6.05;5.45;;;;;;;23.25;52.39;94531.22;5086533;28;20543;-67
2023/06/14 11:04:17;;;;;;;7.35;5.07;;;;;;;23.08;53.10;94505.22;5075835;28;20067;-68
2023/06/14 11:06:52;;;;;;;6.25;5.60;;;;;;;23.33;53.37;94533.63;5050892;28;20035;-68
2023/06/14 11:09:23;;;;;;;7.05;5.78;;;;;;;23.40;53.31;94523.78;5084654;28;20032;-68
2023/06/14 11:11:48;;;;;;;5.65;5.15;;;;;;;23.39;52.83;94508.91;5086512;28;20059;-68
2023/06/14 11:14:14;;;;;;;6.15;5.10;;;;;;;23.72;50.29;94519.31;5066996;28;20064;-68
2023/06/14 11:16:39;;;;;;;7.00;5.43;;;;;;;23.44;51.73;94513.56;5050485;28;20098;-68
2023/06/14 11:19:05;;;;;;;10.30;5.20;;;;;;;23.49;52.20;94519.88;5050592;28;20055;-68
2023/06/14 11:21:33;;;;;;;5.90;4.90;;;;;;;23.16;51.16;94461.78;5088154;28;20036;-68
2023/06/14 11:23:58;;;;;;;5.85;5.35;;;;;;;23.73;52.54;94512.16;5071047;28;20046;-67
2023/06/14 11:26:30;;;;;;;6.30;5.25;;;;;;;23.73;51.65;94507.66;5072988;28;20032;-67